createdAt,value
2022-10-14T00:01:17.644Z,42.40
2022-10-14T00:03:46.419Z,41.70
2022-10-14T00:06:19.046Z,40.57
2022-10-14T00:08:48.459Z,37.90
2022-10-14T00:11:18.728Z,34.80
2022-10-14T00:13:47.347Z,36.83
2022-10-14T00:16:20.495Z,46.97
2022-10-14T00:18:49.098Z,40.27
2022-10-14T00:21:18.629Z,41.50
2022-10-14T00:23:47.430Z,37.43
2022-10-14T00:26:17.094Z,39.93
2022-10-14T00:28:45.667Z,45.00
2022-10-14T00:31:14.195Z,40.33
2022-10-14T00:33:43.878Z,41.20
2022-10-14T00:36:14.337Z,41.57
2022-10-14T00:38:45.402Z,37.80
2022-10-14T00:41:15.058Z,40.90
2022-10-14T00:43:56.778Z,43.80
2022-10-14T00:46:25.132Z,39.83
2022-10-14T00:49:01.938Z,37.63
2022-10-14T00:51:30.069Z,41.10
2022-10-14T00:53:59.645Z,40.90
2022-10-14T00:56:30.122Z,40.57
2022-10-14T00:58:58.620Z,43.30
2022-10-14T01:01:26.776Z,49.17
2022-10-14T01:03:54.892Z,45.53
2022-10-14T01:06:37.437Z,49.73
2022-10-14T01:09:11.932Z,55.00
2022-10-14T01:11:43.935Z,59.27
2022-10-14T01:14:18.015Z,58.07
2022-10-14T01:16:53.192Z,63.13
2022-10-14T01:19:38.486Z,53.67
2022-10-14T01:22:11.507Z,55.93
2022-10-14T01:24:51.919Z,61.13
2022-10-14T01:27:49.565Z,60.27
2022-10-14T01:30:20.428Z,57.40
2022-10-14T01:32:54.186Z,51.83
2022-10-14T01:35:27.511Z,57.47
2022-10-14T01:37:59.066Z,58.37
2022-10-14T01:40:45.713Z,57.30
2022-10-14T01:43:14.696Z,63.13
2022-10-14T01:45:45.119Z,56.77
2022-10-14T01:48:14.991Z,55.50
2022-10-14T01:50:45.169Z,63.00
2022-10-14T01:53:16.945Z,59.80
2022-10-14T01:55:47.652Z,49.13
2022-10-14T01:58:18.191Z,54.47
2022-10-14T02:00:48.920Z,56.87
2022-10-14T02:03:17.006Z,56.40
2022-10-14T02:05:49.567Z,54.97
2022-10-14T02:08:22.400Z,46.77
2022-10-14T02:11:02.577Z,56.23
2022-10-14T02:13:46.786Z,55.17
2022-10-14T02:16:25.577Z,51.70
2022-10-14T02:18:59.851Z,51.03
2022-10-14T02:21:32.677Z,47.80
2022-10-14T02:24:06.870Z,42.13
2022-10-14T02:26:35.740Z,43.03
2022-10-14T02:29:05.126Z,35.50
2022-10-14T02:31:37.297Z,39.10
2022-10-14T02:34:07.635Z,37.40
2022-10-14T02:36:38.520Z,35.30
2022-10-14T02:39:07.905Z,37.10
2022-10-14T02:41:39.069Z,43.77
2022-10-14T02:44:09.452Z,37.00
2022-10-14T02:46:40.515Z,38.33
2022-10-14T02:49:10.740Z,41.10
2022-10-14T02:51:39.120Z,39.60
2022-10-14T02:54:08.254Z,38.43
2022-10-14T02:56:36.448Z,38.90
2022-10-14T02:59:04.875Z,45.07
2022-10-14T03:01:37.297Z,37.80
2022-10-14T03:04:08.205Z,43.67
2022-10-14T03:06:37.224Z,54.17
2022-10-14T03:09:05.431Z,45.27
2022-10-14T03:11:36.563Z,40.13
2022-10-14T03:14:08.028Z,46.07
2022-10-14T03:16:36.066Z,63.87
2022-10-14T03:19:04.797Z,63.00
2022-10-14T03:21:49.805Z,66.97
2022-10-14T03:24:21.066Z,72.73
2022-10-14T03:27:00.608Z,69.03
2022-10-14T03:29:28.988Z,71.93
2022-10-14T03:32:12.177Z,72.57
2022-10-14T03:35:03.306Z,71.43
2022-10-14T03:37:32.719Z,72.70
2022-10-14T03:40:00.763Z,75.60
2022-10-14T03:42:29.021Z,84.07
2022-10-14T03:44:57.337Z,83.00
2022-10-14T03:47:29.010Z,77.70
2022-10-14T03:49:57.056Z,72.30
2022-10-14T03:52:36.261Z,76.33
2022-10-14T03:55:27.240Z,70.63
2022-10-14T03:57:57.054Z,72.33
2022-10-14T04:00:25.163Z,77.27
2022-10-14T04:03:05.865Z,68.73
2022-10-14T04:05:38.863Z,62.57
2022-10-14T04:08:14.077Z,60.53
2022-10-14T04:10:47.438Z,55.97
2022-10-14T04:13:16.077Z,56.70
2022-10-14T04:15:44.148Z,49.90
2022-10-14T04:18:17.783Z,55.37
2022-10-14T04:20:46.725Z,47.40
2022-10-14T04:23:17.978Z,50.33
2022-10-14T04:25:48.362Z,46.00
2022-10-14T04:28:17.344Z,47.77
2022-10-14T04:31:01.055Z,50.13
2022-10-14T04:33:36.627Z,60.60
2022-10-14T04:36:16.120Z,60.33
2022-10-14T04:38:46.336Z,65.07
2022-10-14T04:41:14.547Z,55.17
2022-10-14T04:43:48.333Z,60.00
2022-10-14T04:46:39.484Z,59.37
2022-10-14T04:49:09.242Z,56.27
2022-10-14T04:51:41.581Z,52.80
2022-10-14T04:54:19.115Z,53.27
2022-10-14T04:57:05.457Z,57.67
2022-10-14T04:59:35.092Z,55.73
2022-10-14T05:02:06.097Z,54.33
2022-10-14T05:04:40.525Z,56.30
2022-10-14T05:07:09.637Z,58.63
2022-10-14T05:09:40.200Z,57.83
2022-10-14T05:12:20.484Z,56.40
2022-10-14T05:14:55.108Z,51.77
2022-10-14T05:17:34.152Z,51.50
2022-10-14T05:20:02.269Z,48.90
2022-10-14T05:22:30.898Z,46.33
2022-10-14T05:25:00.305Z,52.73
2022-10-14T05:27:29.308Z,52.90
2022-10-14T05:29:59.222Z,49.43
2022-10-14T05:32:27.735Z,52.40
2022-10-14T05:35:02.171Z,49.47
2022-10-14T05:37:36.375Z,47.80
2022-10-14T05:40:06.973Z,48.30
2022-10-14T05:42:37.476Z,48.27
2022-10-14T05:45:06.310Z,47.70
2022-10-14T05:47:37.794Z,43.43
2022-10-14T05:50:14.840Z,46.17
2022-10-14T05:52:45.455Z,43.47
2022-10-14T05:55:26.488Z,45.70
2022-10-14T05:57:58.908Z,43.20
2022-10-14T06:00:32.953Z,40.27
2022-10-14T06:03:06.189Z,37.33
2022-10-14T06:05:37.547Z,34.87
2022-10-14T06:08:06.206Z,36.33
2022-10-14T06:10:38.972Z,35.07
2022-10-14T06:13:07.076Z,33.60
2022-10-14T06:15:38.041Z,38.20
2022-10-14T06:18:06.738Z,31.40
2022-10-14T06:20:35.016Z,36.10
2022-10-14T06:23:03.515Z,36.83
2022-10-14T06:25:31.943Z,43.30
2022-10-14T06:28:05.743Z,42.50
2022-10-14T06:30:34.139Z,37.63
2022-10-14T06:33:02.205Z,38.63
2022-10-14T06:35:30.324Z,34.13
2022-10-14T06:37:58.897Z,34.40
2022-10-14T06:40:27.007Z,35.90
2022-10-14T06:42:55.035Z,36.00
2022-10-14T06:45:24.425Z,31.10
2022-10-14T06:47:52.471Z,36.90
2022-10-14T06:50:20.541Z,30.83
2022-10-14T06:52:48.850Z,33.90
2022-10-14T06:55:17.566Z,39.33
2022-10-14T06:57:45.755Z,33.27
2022-10-14T07:00:14.555Z,35.03
2022-10-14T07:02:44.650Z,37.00
2022-10-14T07:05:13.294Z,35.63
2022-10-14T07:07:41.415Z,36.33
2022-10-14T07:10:10.309Z,37.73
2022-10-14T07:12:38.385Z,31.67
2022-10-14T07:15:07.395Z,35.17
2022-10-14T07:17:35.439Z,33.00
2022-10-14T07:20:05.417Z,36.43
2022-10-14T07:22:38.847Z,28.80
2022-10-14T07:25:08.380Z,31.30
2022-10-14T07:27:36.652Z,33.97
2022-10-14T07:30:05.798Z,33.80
2022-10-14T07:32:36.993Z,34.43
2022-10-14T07:35:07.558Z,28.17
2022-10-14T07:37:35.696Z,26.83
2022-10-14T07:40:04.245Z,28.63
2022-10-14T07:42:32.328Z,29.43
2022-10-14T07:45:00.966Z,31.40
2022-10-14T07:47:29.087Z,29.53
2022-10-14T07:49:57.255Z,28.43
2022-10-14T07:52:26.650Z,30.87
2022-10-14T07:54:54.670Z,30.90
2022-10-14T07:57:23.776Z,26.10
2022-10-14T07:59:53.081Z,27.70
2022-10-14T08:02:21.498Z,31.00
2022-10-14T08:04:53.659Z,37.60
2022-10-14T08:07:21.976Z,29.47
2022-10-14T08:09:53.704Z,28.60
2022-10-14T08:12:22.420Z,29.10
2022-10-14T08:14:50.791Z,34.80
2022-10-14T08:17:18.936Z,33.03
2022-10-14T08:19:47.162Z,34.23
2022-10-14T08:22:15.339Z,32.50
2022-10-14T08:24:44.394Z,32.23
2022-10-14T08:27:13.887Z,37.13
2022-10-14T08:29:41.955Z,33.70
2022-10-14T08:32:10.045Z,36.40
2022-10-14T08:34:38.112Z,35.43
2022-10-14T08:37:06.214Z,40.13
2022-10-14T08:39:34.376Z,42.40
2022-10-14T08:42:29.544Z,41.70
2022-10-14T08:44:59.320Z,40.57
2022-10-14T08:47:32.869Z,41.70
2022-10-14T08:50:04.154Z,35.30
2022-10-14T08:52:37.725Z,40.33
2022-10-14T08:55:20.504Z,38.03
2022-10-14T08:57:53.483Z,39.90
2022-10-14T09:00:21.902Z,36.30
2022-10-14T09:02:51.846Z,29.30
2022-10-14T09:05:22.834Z,39.23
2022-10-14T09:07:52.479Z,33.67
2022-10-14T09:10:32.628Z,31.30
2022-10-14T09:13:08.837Z,30.57
2022-10-14T09:15:40.665Z,34.77
2022-10-14T09:18:21.600Z,32.13
2022-10-14T09:20:49.968Z,33.00
2022-10-14T09:23:19.709Z,43.17
2022-10-14T09:25:56.974Z,33.93
2022-10-14T09:28:38.987Z,33.87
2022-10-14T09:31:08.620Z,29.23
2022-10-14T09:33:42.181Z,31.60
2022-10-14T09:36:14.688Z,35.60
2022-10-14T09:38:42.910Z,33.57
2022-10-14T09:41:13.805Z,33.80
2022-10-14T09:44:18.692Z,38.53
2022-10-14T09:46:52.447Z,42.10
2022-10-14T09:49:23.808Z,35.80
2022-10-14T09:51:53.032Z,34.20
2022-10-14T09:54:24.695Z,29.30
2022-10-14T09:57:00.126Z,27.93
2022-10-14T09:59:30.054Z,25.30
2022-10-14T10:02:00.630Z,32.10
2022-10-14T10:04:35.488Z,28.13
2022-10-14T10:07:06.915Z,31.17
2022-10-14T10:09:35.374Z,30.00
2022-10-14T10:12:24.084Z,26.73
2022-10-14T10:14:59.471Z,29.83
2022-10-14T10:17:28.791Z,33.33
2022-10-14T10:20:12.607Z,28.33
2022-10-14T10:22:41.877Z,26.00
2022-10-14T10:25:28.530Z,24.00
2022-10-14T10:27:59.379Z,24.03
2022-10-14T10:30:32.355Z,23.57
2022-10-14T10:33:23.290Z,23.67
2022-10-14T10:36:03.968Z,21.20
2022-10-14T10:38:35.408Z,22.30
2022-10-14T10:41:17.243Z,22.63
2022-10-14T10:44:04.238Z,25.53
2022-10-14T10:46:53.691Z,23.43
2022-10-14T10:49:31.172Z,19.33
2022-10-14T10:52:02.852Z,18.03
2022-10-14T10:54:39.546Z,19.23
2022-10-14T10:57:13.750Z,19.47
2022-10-14T10:59:49.683Z,18.63
2022-10-14T11:03:07.845Z,13.10
2022-10-14T11:05:53.499Z,13.67
2022-10-14T11:09:00.258Z,15.17
2022-10-14T11:11:55.403Z,18.63
2022-10-14T11:14:34.263Z,21.70
2022-10-14T11:17:08.298Z,17.37
2022-10-14T11:19:42.192Z,17.97
2022-10-14T11:22:19.582Z,17.43
2022-10-14T11:24:58.657Z,16.43
2022-10-14T11:27:32.995Z,15.40
2022-10-14T11:30:19.171Z,11.00
2022-10-14T11:33:00.810Z,9.50
2022-10-14T11:35:39.308Z,8.60
2022-10-14T11:38:23.213Z,10.83
2022-10-14T11:40:56.728Z,11.73
2022-10-14T11:43:32.822Z,8.97
2022-10-14T11:46:02.389Z,9.40
2022-10-14T11:48:35.641Z,9.30
2022-10-14T11:51:12.446Z,7.80
2022-10-14T11:53:47.064Z,8.77
2022-10-14T11:56:25.537Z,10.00
2022-10-14T11:58:55.140Z,10.77
2022-10-14T12:01:27.661Z,9.60
2022-10-14T12:04:00.431Z,10.60
2022-10-14T12:06:34.671Z,13.73
2022-10-14T12:09:05.551Z,10.33
2022-10-14T12:11:36.745Z,10.10
2022-10-14T12:14:10.395Z,11.53
2022-10-14T12:16:40.887Z,7.63
2022-10-14T12:19:10.084Z,6.77
2022-10-14T12:21:49.737Z,6.50
2022-10-14T12:24:20.997Z,8.90
2022-10-14T12:26:52.166Z,6.43
2022-10-14T12:29:22.279Z,5.30
2022-10-14T12:31:53.144Z,5.60
2022-10-14T12:34:38.535Z,6.80
2022-10-14T12:37:43.189Z,3.80
2022-10-14T12:40:24.724Z,5.83
2022-10-14T12:43:05.403Z,4.00
2022-10-14T12:45:35.923Z,4.27
2022-10-14T12:48:08.331Z,4.17
2022-10-14T12:50:38.753Z,3.30
2022-10-14T12:53:17.733Z,3.03
2022-10-14T12:55:50.146Z,2.93
2022-10-14T12:58:25.193Z,3.70
2022-10-14T13:01:01.791Z,7.17
2022-10-14T13:03:33.732Z,4.80
2022-10-14T13:06:28.607Z,5.70
2022-10-14T13:09:32.641Z,9.00
2022-10-14T13:12:34.247Z,7.43
2022-10-14T13:15:02.706Z,7.17
2022-10-14T13:17:44.692Z,7.73
2022-10-14T13:20:46.278Z,14.20
2022-10-14T13:23:23.148Z,8.87
2022-10-14T13:25:53.821Z,10.03
2022-10-14T13:28:25.653Z,9.90
2022-10-14T13:31:00.427Z,8.87
2022-10-14T13:33:33.566Z,9.80
2022-10-14T13:36:10.227Z,9.30
2022-10-14T13:38:40.140Z,12.93
2022-10-14T13:41:17.078Z,9.33
2022-10-14T13:43:45.429Z,10.00
2022-10-14T13:46:16.708Z,10.03
2022-10-14T13:48:46.538Z,10.97
2022-10-14T13:51:36.441Z,11.17
2022-10-14T13:54:17.378Z,13.10
2022-10-14T13:57:13.781Z,10.30
2022-10-14T14:00:27.796Z,12.13
2022-10-14T14:02:40.835Z,10.37
2022-10-14T14:05:17.227Z,14.50
2022-10-14T14:10:39.150Z,17.77
2022-10-14T14:13:17.112Z,13.90
2022-10-14T14:15:50.545Z,11.30
2022-10-14T14:18:38.259Z,14.43
2022-10-14T14:21:18.618Z,12.57
2022-10-14T14:23:51.584Z,14.57
2022-10-14T14:26:20.701Z,14.13
2022-10-14T14:28:50.675Z,14.23
2022-10-14T14:31:42.461Z,12.20
2022-10-14T14:34:18.654Z,12.90
2022-10-14T14:36:52.055Z,13.93
2022-10-14T14:39:29.022Z,16.63
2022-10-14T14:42:00.735Z,12.47
2022-10-14T14:44:34.055Z,15.93
2022-10-14T14:47:03.848Z,14.50
2022-10-14T14:49:33.456Z,10.23
2022-10-14T14:52:02.820Z,8.97
2022-10-14T14:54:33.582Z,9.67
2022-10-14T14:57:06.052Z,12.10
2022-10-14T14:59:37.980Z,10.87
2022-10-14T15:02:13.801Z,13.77
2022-10-14T15:04:42.944Z,14.53
2022-10-14T15:07:20.998Z,13.57
2022-10-14T15:09:52.172Z,15.27
2022-10-14T15:12:22.871Z,15.83
2022-10-14T15:14:53.890Z,15.50
2022-10-14T15:17:27.711Z,14.63
2022-10-14T15:19:58.777Z,15.13
2022-10-14T15:22:36.299Z,16.17
2022-10-14T15:25:10.631Z,13.70
2022-10-14T15:27:52.903Z,13.77
2022-10-14T15:30:34.994Z,16.33
2022-10-14T15:33:14.894Z,16.53
2022-10-14T15:35:43.613Z,13.03
2022-10-14T15:38:16.630Z,12.40
2022-10-14T15:40:45.721Z,13.37
2022-10-14T15:43:17.514Z,12.23
2022-10-14T15:46:11.803Z,13.57
2022-10-14T15:48:39.200Z,14.67
2022-10-14T15:51:07.264Z,15.53
2022-10-14T15:53:36.635Z,15.57
2022-10-14T15:56:04.710Z,16.77
2022-10-14T15:58:33.806Z,11.60
2022-10-14T16:01:03.745Z,12.80
2022-10-14T16:03:36.009Z,14.80
2022-10-14T16:06:14.617Z,11.97
2022-10-14T16:08:46.582Z,15.00
2022-10-14T16:11:21.868Z,14.63
2022-10-14T16:13:53.311Z,13.83
2022-10-14T16:16:27.174Z,17.87
2022-10-14T16:18:58.565Z,13.90
2022-10-14T16:21:30.064Z,17.50
2022-10-14T16:23:59.804Z,15.30
2022-10-14T16:26:30.817Z,18.07
2022-10-14T16:29:03.730Z,17.57
2022-10-14T16:31:33.814Z,17.03
2022-10-14T16:34:03.834Z,14.00
2022-10-14T16:36:32.592Z,13.60
2022-10-14T16:39:06.027Z,12.43
2022-10-14T16:41:37.272Z,13.97
2022-10-14T16:44:05.954Z,15.40
2022-10-14T16:46:52.983Z,12.80
2022-10-14T16:49:21.105Z,10.87
2022-10-14T16:51:49.172Z,11.50
2022-10-14T16:54:17.320Z,16.60
2022-10-14T16:56:55.512Z,11.37
2022-10-14T16:59:24.732Z,11.60
2022-10-14T17:01:54.429Z,11.23
2022-10-14T17:04:23.295Z,14.13
2022-10-14T17:06:58.992Z,12.17
2022-10-14T17:09:27.261Z,11.97
2022-10-14T17:11:55.815Z,13.60
2022-10-14T17:14:24.318Z,10.80
2022-10-14T17:16:52.742Z,10.93
2022-10-14T17:19:24.384Z,10.17
2022-10-14T17:21:52.949Z,10.17
2022-10-14T17:24:22.238Z,9.67
2022-10-14T17:26:50.804Z,8.73
2022-10-14T17:29:20.821Z,10.10
2022-10-14T17:31:51.879Z,10.80
2022-10-14T17:34:20.446Z,11.40
2022-10-14T17:36:50.375Z,9.60
2022-10-14T17:39:25.878Z,13.40
2022-10-14T17:42:00.232Z,12.50
2022-10-14T17:44:29.274Z,14.17
2022-10-14T17:46:59.482Z,10.80
2022-10-14T17:49:29.485Z,12.20
2022-10-14T17:52:02.152Z,9.40
2022-10-14T17:54:35.511Z,16.30
2022-10-14T17:57:04.556Z,11.00
2022-10-14T17:59:32.786Z,13.20
2022-10-14T18:02:03.106Z,9.77
2022-10-14T18:04:34.263Z,12.70
2022-10-14T18:07:04.546Z,16.90
2022-10-14T18:09:34.059Z,11.73
2022-10-14T18:12:08.630Z,11.80
2022-10-14T18:14:38.629Z,13.40
2022-10-14T18:17:07.229Z,16.33
2022-10-14T18:19:36.153Z,17.13
2022-10-14T18:22:07.136Z,15.70
2022-10-14T18:24:38.544Z,12.50
2022-10-14T18:27:07.849Z,17.33
2022-10-14T18:29:37.114Z,12.17
2022-10-14T18:32:06.133Z,13.97
2022-10-14T18:34:35.248Z,16.47
2022-10-14T18:37:03.750Z,21.03
2022-10-14T18:39:44.783Z,17.23
2022-10-14T18:42:19.922Z,18.90
2022-10-14T18:44:50.389Z,19.07
2022-10-14T18:47:20.208Z,16.57
2022-10-14T18:49:49.811Z,15.70
2022-10-14T18:52:21.885Z,17.30
2022-10-14T18:54:54.967Z,19.40
2022-10-14T18:57:25.100Z,20.13
2022-10-14T18:59:57.811Z,21.27
2022-10-14T19:02:32.649Z,19.37
2022-10-14T19:05:08.290Z,21.70
2022-10-14T19:07:39.193Z,21.77
2022-10-14T19:10:28.756Z,23.23
2022-10-14T19:12:57.838Z,25.33
2022-10-14T19:15:27.184Z,31.93
2022-10-14T19:17:59.378Z,40.17
2022-10-14T19:20:29.060Z,41.40
2022-10-14T19:22:59.557Z,44.20
2022-10-14T19:25:38.142Z,32.97
2022-10-14T19:28:10.175Z,29.30
2022-10-14T19:30:49.691Z,36.87
2022-10-14T19:33:27.395Z,30.63
2022-10-14T19:36:00.318Z,26.77
2022-10-14T19:38:32.097Z,31.57
2022-10-14T19:41:04.703Z,24.60
2022-10-14T19:43:35.102Z,27.07
2022-10-14T19:46:08.225Z,29.50
2022-10-14T19:48:41.140Z,37.33
2022-10-14T19:51:14.696Z,29.63
2022-10-14T19:53:46.911Z,30.13
2022-10-14T19:56:16.774Z,29.80
2022-10-14T19:58:46.596Z,33.47
2022-10-14T20:01:18.798Z,29.77
2022-10-14T20:03:49.004Z,33.57
2022-10-14T20:06:18.924Z,37.70
2022-10-14T20:08:48.643Z,30.47
2022-10-14T20:11:22.446Z,33.90
2022-10-14T20:13:54.475Z,32.27
2022-10-14T20:16:22.789Z,25.80
2022-10-14T20:18:53.583Z,37.20
2022-10-14T20:21:21.745Z,34.00
2022-10-14T20:23:51.448Z,37.63
2022-10-14T20:26:22.844Z,35.13
2022-10-14T20:28:51.393Z,32.57
2022-10-14T20:31:21.896Z,37.83
2022-10-14T20:33:50.757Z,36.30
2022-10-14T20:36:24.039Z,42.40
2022-10-14T20:38:54.154Z,37.50
2022-10-14T20:41:32.638Z,40.50
2022-10-14T20:44:04.808Z,45.90
2022-10-14T20:46:33.971Z,38.77
2022-10-14T20:49:05.279Z,41.03
2022-10-14T20:51:41.857Z,41.30
2022-10-14T20:54:12.629Z,40.43
2022-10-14T20:56:44.262Z,45.47
2022-10-14T20:59:14.942Z,42.60
2022-10-14T21:01:45.649Z,40.30
2022-10-14T21:04:14.015Z,44.73
2022-10-14T21:06:42.828Z,43.00
2022-10-14T21:09:12.248Z,41.00
2022-10-14T21:11:45.119Z,42.50
2022-10-14T21:14:15.906Z,44.37
2022-10-14T21:16:47.505Z,41.53
2022-10-14T21:19:18.975Z,50.57
2022-10-14T21:21:49.386Z,43.87
2022-10-14T21:24:31.701Z,45.93
2022-10-14T21:27:03.682Z,45.63
2022-10-14T21:29:32.953Z,53.00
2022-10-14T21:32:02.702Z,47.03
2022-10-14T21:34:31.235Z,47.70
2022-10-14T21:37:02.189Z,45.67
2022-10-14T21:39:30.874Z,47.03
2022-10-14T21:42:03.994Z,45.70
2022-10-14T21:44:32.198Z,49.57
2022-10-14T21:47:02.550Z,49.23
2022-10-14T21:49:30.626Z,48.90
2022-10-14T21:52:01.149Z,52.10
2022-10-14T21:54:30.385Z,59.00
2022-10-14T21:57:01.732Z,50.63
2022-10-14T21:59:32.189Z,49.53
2022-10-14T22:02:03.596Z,57.20
2022-10-14T22:04:34.546Z,52.83
2022-10-14T22:07:06.788Z,49.10
2022-10-14T22:09:36.042Z,47.30
2022-10-14T22:12:09.611Z,50.20
2022-10-14T22:14:38.166Z,50.80
2022-10-14T22:17:12.593Z,47.53
2022-10-14T22:19:40.937Z,48.80
2022-10-14T22:22:12.252Z,51.60
2022-10-14T22:24:40.544Z,50.73
2022-10-14T22:27:20.805Z,50.80
2022-10-14T22:29:52.692Z,44.57
2022-10-14T22:32:22.613Z,48.87
2022-10-14T22:34:54.741Z,54.53
2022-10-14T22:37:26.286Z,51.37
2022-10-14T22:39:57.359Z,50.23
2022-10-14T22:45:03.166Z,53.47
2022-10-14T22:47:33.857Z,52.03
2022-10-14T22:50:04.412Z,51.53
2022-10-14T22:52:33.678Z,50.77
2022-10-14T22:55:01.805Z,47.10
2022-10-14T22:57:31.263Z,47.60
2022-10-14T22:59:59.400Z,53.93
2022-10-14T23:02:27.429Z,52.67
2022-10-14T23:04:55.498Z,48.00
2022-10-14T23:07:23.816Z,50.80
2022-10-14T23:09:51.997Z,50.83
2022-10-14T23:12:20.317Z,50.27
2022-10-14T23:14:51.352Z,46.00
2022-10-14T23:17:19.479Z,51.37
2022-10-14T23:19:47.826Z,50.77
2022-10-14T23:22:15.879Z,49.47
2022-10-14T23:24:43.915Z,50.60
2022-10-14T23:27:11.947Z,53.57
2022-10-14T23:29:40.030Z,55.40
2022-10-14T23:32:09.553Z,51.93
2022-10-14T23:34:37.645Z,48.40
2022-10-14T23:37:05.710Z,59.23
2022-10-14T23:39:33.880Z,49.67
2022-10-14T23:42:01.920Z,53.73
2022-10-14T23:44:31.628Z,48.73
2022-10-14T23:46:59.660Z,51.50
2022-10-14T23:49:29.070Z,56.20
2022-10-14T23:51:57.229Z,48.20
2022-10-14T23:54:25.667Z,52.40
2022-10-14T23:56:53.791Z,52.10
2022-10-14T23:59:21.850Z,51.90
